Flight Track Log - Related Links

Times and Time Zones

All times are in EDT time to prevent confusion due to time zone crossing. See the JIA2329 flight status page for this flight to view local times or setup timezone preferences in your user account.

Time Position Orientation Groundspeed Altitude Reporting Facility
EDT Latitude Longitude Course Direction KTS MPH feet Rate Location/Type
Sat 06:55:12 AM 42.7319 -73.8081 220° Southwest 139 160 1,600  Level Boston Center
Sat 06:56:19 AM 42.6961 -73.8356 209° Southwest 185 213 4,300 2,820 Climbing Boston Center
Sat 06:57:00 AM 42.7333 -74.1436 270° West  Level FlightAware Approximate
Sat 06:58:00 AM 42.7334 -74.2581 270° West  Level FlightAware Approximate
Sat 06:58:15 AM 42.7128 -74.0056 278° West 243 280 10,200  Level Boston Center
Sat 06:59:00 AM 42.6984 -74.3539 220° Southwest  Level FlightAware Approximate
Sat 06:59:15 AM 42.6967 -74.0983 257° West 251 289 12,700  Level Boston Center
Sat 07:00:00 AM 42.6336 -74.4269 220° Southwest  Level FlightAware Approximate
Sat 07:00:15 AM 42.6519 -74.1733 231° Southwest 270 311 15,400  Level Boston Center
Sat 07:01:15 AM 42.5939 -74.2733 232° Southwest 303 349 16,000 550 Climbing Boston Center
Sat 07:02:15 AM 42.5406 -74.3619 231° Southwest 332 382 16,500 950 Climbing Boston Center
Sat 07:03:15 AM 42.4761 -74.4669 230° Southwest 339 390 17,900 815 Climbing Boston Center
Sat 07:05:19 AM 42.3525 -74.6711 231° Southwest 341 392 19,000 365 Climbing New York Center
Sat 07:06:16 AM 42.2931 -74.7711 231° Southwest 341 392 19,000  Level New York Center
Sat 07:07:17 AM 42.2314 -74.8711 230° Southwest 341 392 19,000  Level New York Center
Sat 07:08:17 AM 42.1656 -74.9650 227° Southwest 346 398 19,000  Level New York Center
Sat 07:09:19 AM 42.0925 -75.0328 215° Southwest 346 398 19,000  Level New York Center
Sat 07:10:16 AM 42.0025 -75.1053 211° Southwest 352 405 19,000  Level New York Center
Sat 07:11:17 AM 41.9208 -75.1722 211° Southwest 352 405 19,000  Level New York Center
Sat 07:12:17 AM 41.8392 -75.2392 211° Southwest 352 405 19,000 -496 Level New York Center
Sat 07:13:18 AM 41.7642 -75.2981 210° Southwest 352 405 18,000 -1,300 Descending New York Center
Sat 07:14:17 AM 41.6847 -75.3622 211° Southwest 352 405 16,400 -1,650 Descending New York Center
Sat 07:15:18 AM 41.5986 -75.4311 211° Southwest 346 398 14,700 -1,525 Descending New York Center
Sat 07:16:19 AM 41.5214 -75.4922 211° Southwest 340 391 13,300 -1,373 Descending New York Center
Sat 07:17:16 AM 41.4439 -75.5561 212° Southwest 335 386 12,000 -661 Descending New York Center
Sat 07:18:17 AM 41.3769 -75.6094 211° Southwest 328 377 12,000  Level New York Center
Sat 07:19:17 AM 41.2994 -75.6700 210° Southwest 328 377 12,000 -246 Level New York Center
Sat 07:20:19 AM 41.2050 -75.6881 188° South 312 359 11,500 -750 Descending New York Center
Sat 07:21:17 AM 41.1156 -75.6869 179° South 322 371 10,500 -756 Descending New York Center
Sat 07:22:18 AM 41.0303 -75.6864 180° South 317 365 10,000 -248 Descending New York Center
Sat 07:23:18 AM 40.9544 -75.6533 162° South 317 365 10,000  Level New York Center
Sat 07:24:17 AM 40.8664 -75.6169 163° South 322 371 10,000  Level New York Center
Sat 07:25:17 AM 40.7722 -75.5744 161° South 327 376 10,000  Level New York Center
Sat 07:26:18 AM 40.6883 -75.5386 162° South 327 376 10,000  Level New York Center
Sat 07:27:19 AM 40.6044 -75.5000 161° South 322 371 10,000  Level New York Center
Sat 07:28:17 AM 40.5264 -75.4672 162° South 303 349 10,000  Level New York Center
Sat 07:29:18 AM 40.4528 -75.4350 162° South 291 335 10,000 -246 Level New York Center
Sat 07:30:19 AM 40.3819 -75.3811 150° Southeast 291 335 9,500 -694 Descending New York Center
Sat 07:31:19 AM 40.3194 -75.3281 147° Southeast 297 342 8,600 -958 Descending New York Center
Sat 07:32:18 AM 40.2569 -75.2722 146° Southeast 283 326 7,600 -1,100 Descending New York Center
Sat 07:33:19 AM 40.1819 -75.2183 151° Southeast 283 326 6,400 -1,361 Descending New York Center
Sat 07:34:17 AM 40.1172 -75.1653 148° Southeast 283 326 4,900 -1,571 Descending New York Center
Sat 07:34:43 AM 40.0833 -75.1500 161° South 260 299 4,200 -1,256 Descending Philadelphia TRACON
Sat 07:35:43 AM 40.0333 -75.1333 166° South 222 255 3,100 -750 Descending Philadelphia TRACON
Sat 07:36:43 AM 39.9667 -75.1333 180° South 159 183 2,700 -400 Descending Philadelphia TRACON

Login

Don't have an account? Register now (free) for customized features, flight alerts, and more!